Detall de PIREP

Printer-friendly versionPDF version

[2015/12/22 01:30:00]
Flight IATA:CT1004
Pilot Number:016
Company ICAO:CAT
Aircraft Type:B738/F
PAX:146
Departing Airport: LEBL
Destination Airport: LEIB
Alternate Airport:LEBL
Online: IVAO
Route:LARPA B31 TOLSO
Flight Level:F190
No Slew and time accel
No pause
Crash detect
Detect pilot in Cockpit between each 30 and 45 minutes
01:30 Zero fuel Weight: 118382 Lbs, Fuel Weight: 15839 Lbs
01:30 VATSIM:LEBL 220100Z 33008KT 300V360 7000 NSC 09/07 Q1034 NOSIG
01:30 VATSIM:LEIB 212300Z 00000KT 6000 FEW011 11/10 Q1035 NOSIG
01:32 Parking Brakes off
01:41 Take-off
01:41 Take off Weight: 133239 Lbs
01:41 Wind: 292º @ 008 Knots Heading: 247º
01:41 POS N41º 17´ 12´´ E002º 05´ 15´´
01:41 Gear Up: 172 Knots
01:41 Flaps:3 at 172 Knots
01:42 Flaps:2 at 224 Knots
01:42 Flaps:1 at 243 Knots
01:42 Flaps:0 at 245 Knots
01:48 TOC
01:48 Fuel Weight: 12947 Lb
01:56 Wind:212º@017 Knots Heading: 187º Ground Speed: 373 Knots Altitude 19402 ft
01:59 TOD
01:59 Fuel Weight: 11902 Lb
02:08 Flaps:1 at 241 Knots
02:10 Flaps:2 at 181 Knots
02:10 Flaps:3 at 181 Knots
02:11 Wind:148º@001 Knots Heading: 226º Ground Speed: 186 Knots Altitude 3858 ft
02:12 Flaps:4 at 180 Knots
02:12 Gear Down: 179 Knots
02:12 Flaps:5 at 173 Knots
02:12 Flaps:6 at 164 Knots
02:13 Flaps:7 at 154 Knots
02:13 Flaps:8 at 147 Knots
02:15 TouchDown:Rate -242 ft/min Speed: 133 Knots
02:15 VATSIM:LEIB 212300Z 00000KT 6000 FEW011 11/10 Q1035 NOSIG
02:15 Land
02:15 Wind:000º@000 Knots
02:15 Heading: 241º
02:15 Flight Duration: 00:34
02:15 Landing Weight: 129391 Lbs
02:15 POS N38º 52´ 25´´ E001º 22´ 31´´
02:17 Parking brakes on
02:17 Block to Block Duration: 00:45
02:17 Final Fuel: 10835 Lbls
02:17 Spent Fuel: 5004 Lbls
02:17 Flight Length: 169 NM
02:17 TOD Land Length: 66 NM

Exportar CSV

Powered by Drupal - Modified by Danger4k